createdAt,value
2022-11-12T00:02:37.368Z,102640.81
2022-11-12T00:05:25.584Z,102632.38
2022-11-12T00:08:12.060Z,102631.84
2022-11-12T00:10:58.796Z,102631.09
2022-11-12T00:13:45.239Z,102631.84
2022-11-12T00:16:32.340Z,102622.06
2022-11-12T00:19:21.713Z,102618.38
2022-11-12T00:22:10.057Z,102615.88
2022-11-12T00:24:56.370Z,102621.22
2022-11-12T00:27:42.715Z,102624.72
2022-11-12T00:30:28.758Z,102616.94
2022-11-12T00:33:15.838Z,102619.44
2022-11-12T00:36:02.328Z,102619.28
2022-11-12T00:38:51.639Z,102612.03
2022-11-12T00:41:38.110Z,102608.69
2022-11-12T00:44:24.094Z,102605.88
2022-11-12T00:47:10.486Z,102616.47
2022-11-12T00:49:57.016Z,102610.44
2022-11-12T00:52:43.714Z,102608.38
2022-11-12T00:55:29.454Z,102613.69
2022-11-12T00:58:15.138Z,102613.50
2022-11-12T01:01:12.727Z,102613.38
2022-11-12T01:04:00.485Z,102613.75
2022-11-12T01:06:46.499Z,102608.91
2022-11-12T01:09:32.292Z,102608.78
2022-11-12T01:12:18.165Z,102608.78
2022-11-12T01:15:06.312Z,102607.88
2022-11-12T01:17:52.671Z,102601.81
2022-11-12T01:20:39.935Z,102606.88
2022-11-12T01:23:25.510Z,102604.50
2022-11-12T01:26:14.574Z,102604.75
2022-11-12T01:29:01.281Z,102607.81
2022-11-12T01:31:47.706Z,102605.28
2022-11-12T01:34:34.557Z,102617.31
2022-11-12T01:37:20.410Z,102606.59
2022-11-12T01:40:07.809Z,102606.88
2022-11-12T01:42:54.573Z,102606.53
2022-11-12T01:45:46.146Z,102611.56
2022-11-12T01:48:40.547Z,102611.38
2022-11-12T01:51:33.592Z,102608.34
2022-11-12T01:54:22.246Z,102597.22
2022-11-12T01:57:11.557Z,102590.19
2022-11-12T02:00:02.736Z,102592.88
2022-11-12T02:02:57.041Z,102597.06
2022-11-12T02:05:43.818Z,102592.19
2022-11-12T02:08:31.675Z,102593.03
2022-11-12T02:11:23.080Z,102601.31
2022-11-12T02:14:09.690Z,102591.06
2022-11-12T02:16:55.923Z,102597.34
2022-11-12T02:19:42.087Z,102592.28
2022-11-12T02:22:29.008Z,102595.94
2022-11-12T02:25:24.951Z,102593.63
2022-11-12T02:28:18.223Z,102593.47
2022-11-12T02:31:10.446Z,102587.47
2022-11-12T02:33:58.145Z,102585.97
2022-11-12T02:36:44.392Z,102579.03
2022-11-12T02:39:30.319Z,102581.72
2022-11-12T02:42:16.551Z,102578.38
2022-11-12T02:45:03.379Z,102578.72
2022-11-12T02:47:51.063Z,102568.13
2022-11-12T02:50:37.275Z,102563.13
2022-11-12T02:53:24.017Z,102565.00
2022-11-12T02:56:10.097Z,102563.56
2022-11-12T02:58:56.671Z,102561.50
2022-11-12T03:01:42.835Z,102561.03
2022-11-12T03:04:28.975Z,102560.53
2022-11-12T03:07:15.486Z,102559.69
2022-11-12T03:10:01.628Z,102564.41
2022-11-12T03:12:48.268Z,102561.88
2022-11-12T03:15:34.883Z,102555.88
2022-11-12T03:18:21.313Z,102556.28
2022-11-12T03:21:08.236Z,102550.53
2022-11-12T03:23:54.032Z,102560.44
2022-11-12T03:26:40.153Z,102560.94
2022-11-12T03:29:27.601Z,102562.06
2022-11-12T03:32:13.715Z,102568.63
2022-11-12T03:35:00.198Z,102563.63
2022-11-12T03:37:46.375Z,102570.84
2022-11-12T03:40:33.998Z,102566.34
2022-11-12T03:43:19.913Z,102549.34
2022-11-12T03:46:11.946Z,102556.06
2022-11-12T03:49:00.043Z,102555.69
2022-11-12T03:51:47.199Z,102554.06
2022-11-12T03:54:33.407Z,102550.53
2022-11-12T03:57:21.611Z,102538.28
2022-11-12T04:00:21.973Z,102549.16
2022-11-12T04:03:07.738Z,102549.22
2022-11-12T04:06:11.905Z,102557.31
2022-11-12T04:08:58.271Z,102560.97
2022-11-12T04:11:44.404Z,102556.78
2022-11-12T04:14:30.275Z,102557.63
2022-11-12T04:17:34.744Z,102554.41
2022-11-12T04:20:39.733Z,102555.22
2022-11-12T04:23:28.543Z,102554.94
2022-11-12T04:26:23.905Z,102551.00
2022-11-12T04:29:28.613Z,102554.75
2022-11-12T04:32:14.682Z,102550.72
2022-11-12T04:35:01.913Z,102557.28
2022-11-12T04:37:48.961Z,102557.44
2022-11-12T04:40:53.355Z,102560.97
2022-11-12T04:43:57.990Z,102558.28
2022-11-12T04:46:43.625Z,102553.94
2022-11-12T04:49:29.811Z,102555.09
2022-11-12T04:52:16.790Z,102558.81
2022-11-12T04:55:03.240Z,102555.78
2022-11-12T04:57:49.083Z,102548.72
2022-11-12T05:00:36.399Z,102545.66
2022-11-12T05:03:23.574Z,102545.19
2022-11-12T05:06:30.746Z,102543.56
2022-11-12T05:09:16.507Z,102538.31
2022-11-12T05:12:22.774Z,102535.09
2022-11-12T05:15:14.478Z,102547.91
2022-11-12T05:18:01.067Z,102540.53
2022-11-12T05:20:47.728Z,102533.63
2022-11-12T05:23:33.420Z,102532.47
2022-11-12T05:26:19.378Z,102526.59
2022-11-12T05:29:08.736Z,102536.50
2022-11-12T05:31:55.357Z,102540.50
2022-11-12T05:34:42.324Z,102549.91
2022-11-12T05:37:28.553Z,102544.22
2022-11-12T05:40:14.457Z,102548.28
2022-11-12T05:43:00.665Z,102540.25
2022-11-12T05:45:46.704Z,102538.88
2022-11-12T05:48:33.004Z,102539.72
2022-11-12T05:51:18.961Z,102542.75
2022-11-12T05:54:05.674Z,102551.13
2022-11-12T05:56:54.138Z,102552.63
2022-11-12T05:59:40.450Z,102552.13
2022-11-12T06:02:26.185Z,102544.31
2022-11-12T06:05:12.331Z,102541.09
2022-11-12T06:07:58.921Z,102546.78
2022-11-12T06:11:11.803Z,102555.38
2022-11-12T06:13:57.952Z,102553.34
2022-11-12T06:16:44.176Z,102543.97
2022-11-12T06:19:30.673Z,102553.66
2022-11-12T06:22:17.388Z,102557.69
2022-11-12T06:25:03.196Z,102557.19
2022-11-12T06:27:49.943Z,102554.69
2022-11-12T06:30:38.030Z,102556.84
2022-11-12T06:33:24.296Z,102558.19
2022-11-12T06:36:12.238Z,102567.59
2022-11-12T06:38:58.688Z,102561.72
2022-11-12T06:41:44.805Z,102565.41
2022-11-12T06:44:31.119Z,102574.28
2022-11-12T06:47:17.331Z,102566.38
2022-11-12T06:50:06.707Z,102573.91
2022-11-12T06:52:58.309Z,102573.25
2022-11-12T06:55:44.529Z,102570.22
2022-11-12T06:58:31.363Z,102576.41
2022-11-12T07:01:19.719Z,102582.47
2022-11-12T07:04:05.981Z,102578.56
2022-11-12T07:06:59.235Z,102583.88
2022-11-12T07:09:45.294Z,102584.22
2022-11-12T07:12:31.825Z,102578.66
2022-11-12T07:15:19.810Z,102578.13
2022-11-12T07:18:06.103Z,102591.19
2022-11-12T07:20:52.173Z,102589.50
2022-11-12T07:23:39.092Z,102593.38
2022-11-12T07:26:30.719Z,102583.63
2022-11-12T07:29:30.190Z,102585.41
2022-11-12T07:32:28.060Z,102586.97
2022-11-12T07:35:14.563Z,102584.44
2022-11-12T07:38:00.762Z,102589.97
2022-11-12T07:40:46.957Z,102588.09
2022-11-12T07:43:35.261Z,102588.28
2022-11-12T07:46:23.067Z,102593.97
2022-11-12T07:49:09.409Z,102585.19
2022-11-12T07:51:55.620Z,102584.84
2022-11-12T07:54:43.360Z,102587.53
2022-11-12T07:57:30.149Z,102589.88
2022-11-12T08:00:17.423Z,102589.56
2022-11-12T08:03:03.778Z,102588.53
2022-11-12T08:05:51.198Z,102587.31
2022-11-12T08:08:37.128Z,102589.91
2022-11-12T08:11:24.309Z,102588.94
2022-11-12T08:14:11.172Z,102591.22
2022-11-12T08:16:57.838Z,102592.16
2022-11-12T08:19:45.795Z,102592.56
2022-11-12T08:22:36.678Z,102592.09
2022-11-12T08:25:22.765Z,102583.59
2022-11-12T08:28:08.941Z,102593.22
2022-11-12T08:30:57.338Z,102586.78
2022-11-12T08:33:44.982Z,102585.19
2022-11-12T08:36:31.745Z,102599.13
2022-11-12T08:39:17.885Z,102592.72
2022-11-12T08:42:05.098Z,102590.31
2022-11-12T08:44:51.819Z,102594.69
2022-11-12T08:47:37.903Z,102589.31
2022-11-12T08:50:23.985Z,102585.22
2022-11-12T08:53:14.277Z,102589.38
2022-11-12T08:56:01.584Z,102593.56
2022-11-12T08:58:52.765Z,102590.97
2022-11-12T09:01:56.561Z,102597.59
2022-11-12T09:04:43.931Z,102592.53
2022-11-12T09:07:48.702Z,102594.28
2022-11-12T09:10:36.187Z,102600.88
2022-11-12T09:13:23.023Z,102595.56
2022-11-12T09:16:10.830Z,102586.84
2022-11-12T09:19:00.716Z,102592.53
2022-11-12T09:21:47.645Z,102584.88
2022-11-12T09:24:34.431Z,102583.78
2022-11-12T09:27:21.243Z,102585.16
2022-11-12T09:30:09.309Z,102574.38
2022-11-12T09:32:59.597Z,102574.06
2022-11-12T09:35:47.468Z,102577.78
2022-11-12T09:38:34.339Z,102570.88
2022-11-12T09:41:30.261Z,102573.66
2022-11-12T09:44:22.802Z,102568.78
2022-11-12T09:47:21.218Z,102576.03
2022-11-12T09:50:36.986Z,102583.72
2022-11-12T09:53:44.238Z,102568.94
2022-11-12T09:56:31.212Z,102567.72
2022-11-12T09:59:19.797Z,102563.81
2022-11-12T10:02:56.398Z,102567.34
2022-11-12T10:05:50.211Z,102563.25
2022-11-12T10:09:03.872Z,102560.22
2022-11-12T10:12:29.933Z,102556.31
2022-11-12T10:16:37.477Z,102554.66
2022-11-12T10:20:14.165Z,102550.28
2022-11-12T10:23:24.828Z,102548.25
2022-11-12T10:26:17.729Z,102554.34
2022-11-12T10:29:11.937Z,102547.50
2022-11-12T10:32:18.737Z,102547.75
2022-11-12T10:35:05.059Z,102542.34
2022-11-12T10:38:07.896Z,102543.00
2022-11-12T10:40:54.336Z,102543.25
2022-11-12T10:43:54.693Z,102544.53
2022-11-12T10:46:43.828Z,102541.25
2022-11-12T10:49:30.496Z,102531.09
2022-11-12T10:52:29.853Z,102526.31
2022-11-12T10:55:20.662Z,102536.41
2022-11-12T10:58:12.954Z,102530.28
2022-11-12T11:01:14.877Z,102526.31
2022-11-12T11:04:00.870Z,102515.50
2022-11-12T11:06:47.291Z,102524.88
2022-11-12T11:09:34.849Z,102523.59
2022-11-12T11:12:28.895Z,102515.47
2022-11-12T11:15:25.339Z,102519.69
2022-11-12T11:18:13.375Z,102513.59
2022-11-12T11:21:08.662Z,102517.50
2022-11-12T11:24:02.457Z,102518.16
2022-11-12T11:27:03.670Z,102519.22
2022-11-12T11:30:03.830Z,102514.03
2022-11-12T11:33:08.253Z,102511.75
2022-11-12T11:36:14.315Z,102505.63
2022-11-12T11:39:10.759Z,102509.25
2022-11-12T11:42:18.195Z,102505.53
2022-11-12T11:45:33.646Z,102501.09
2022-11-12T11:48:57.038Z,102511.13
2022-11-12T11:51:50.049Z,102503.44
2022-11-12T11:55:04.404Z,102502.34
2022-11-12T11:57:59.299Z,102494.00
2022-11-12T12:00:50.222Z,102504.59
2022-11-12T12:04:12.449Z,102493.84
2022-11-12T12:07:06.120Z,102493.22
2022-11-12T12:10:14.141Z,102492.06
2022-11-12T12:13:22.384Z,102484.56
2022-11-12T12:16:46.459Z,102486.88
2022-11-12T12:19:49.278Z,102481.75
2022-11-12T12:23:14.111Z,102486.00
2022-11-12T12:26:03.750Z,102478.75
2022-11-12T12:29:12.156Z,102478.09
2022-11-12T12:32:15.000Z,102468.75
2022-11-12T12:35:41.263Z,102466.88
2022-11-12T12:38:36.777Z,102456.72
2022-11-12T12:41:30.124Z,102458.16
2022-11-12T12:44:16.527Z,102455.03
2022-11-12T12:47:04.677Z,102444.88
2022-11-12T12:49:53.536Z,102441.53
2022-11-12T12:53:26.142Z,102439.91
2022-11-12T12:56:15.705Z,102428.13
2022-11-12T12:59:08.986Z,102434.75
2022-11-12T13:02:03.258Z,102422.25
2022-11-12T13:04:58.378Z,102419.53
2022-11-12T13:07:48.671Z,102423.09
2022-11-12T13:10:56.758Z,102413.75
2022-11-12T13:13:43.212Z,102413.34
2022-11-12T13:16:53.801Z,102412.69
2022-11-12T13:20:05.540Z,102400.84
2022-11-12T13:22:52.356Z,102399.81
2022-11-12T13:25:39.360Z,102400.00
2022-11-12T13:28:27.715Z,102397.09
2022-11-12T13:31:28.466Z,102389.19
2022-11-12T13:34:32.489Z,102390.47
2022-11-12T13:37:29.110Z,102384.00
2022-11-12T13:40:39.731Z,102382.16
2022-11-12T13:43:32.154Z,102381.75
2022-11-12T13:46:27.304Z,102370.72
2022-11-12T13:49:20.524Z,102368.00
2022-11-12T13:52:07.279Z,102360.50
2022-11-12T13:55:08.145Z,102351.56
2022-11-12T13:58:01.690Z,102352.81
2022-11-12T14:01:02.913Z,102349.28
2022-11-12T14:03:52.339Z,102349.47
2022-11-12T14:06:47.247Z,102346.78
2022-11-12T14:09:55.019Z,102343.66
2022-11-12T14:13:03.577Z,102344.72
2022-11-12T14:16:25.377Z,102329.94
2022-11-12T14:19:56.063Z,102342.84
2022-11-12T14:22:46.130Z,102333.47
2022-11-12T14:25:34.276Z,102324.34
2022-11-12T14:28:29.338Z,102326.00
2022-11-12T14:31:27.471Z,102322.63
2022-11-12T14:34:31.529Z,102322.84
2022-11-12T14:37:43.452Z,102326.81
2022-11-12T14:40:33.235Z,102321.84
2022-11-12T14:43:43.909Z,102318.47
2022-11-12T14:46:39.039Z,102314.75
2022-11-12T14:49:44.318Z,102311.44
2022-11-12T14:52:41.490Z,102315.16
2022-11-12T14:55:36.740Z,102317.41
2022-11-12T14:58:34.536Z,102316.38
2022-11-12T15:02:08.921Z,102318.66
2022-11-12T15:04:44.744Z,102315.13
2022-11-12T15:07:36.468Z,102306.59
2022-11-12T15:10:40.258Z,102302.53
2022-11-12T15:14:18.269Z,102299.84
2022-11-12T15:17:06.365Z,102292.94
2022-11-12T15:19:52.284Z,102294.19
2022-11-12T15:22:38.806Z,102293.53
2022-11-12T15:25:28.211Z,102298.72
2022-11-12T15:28:22.603Z,102290.25
2022-11-12T15:31:22.798Z,102290.19
2022-11-12T15:34:30.150Z,102289.53
2022-11-12T15:37:20.092Z,102291.19
2022-11-12T15:40:19.054Z,102285.56
2022-11-12T15:43:12.957Z,102290.97
2022-11-12T15:45:58.963Z,102285.13
2022-11-12T15:48:45.931Z,102275.16
2022-11-12T15:51:32.343Z,102272.25
2022-11-12T15:54:21.713Z,102265.19
2022-11-12T15:57:15.485Z,102272.22
2022-11-12T16:00:08.355Z,102271.34
2022-11-12T16:03:13.514Z,102273.44
2022-11-12T16:06:03.953Z,102265.91
2022-11-12T16:08:54.108Z,102265.91
2022-11-12T16:11:40.134Z,102272.34
2022-11-12T16:14:26.901Z,102271.31
2022-11-12T16:17:16.488Z,102266.94
2022-11-12T16:20:02.785Z,102267.34
2022-11-12T16:22:49.595Z,102264.00
2022-11-12T16:25:38.658Z,102262.31
2022-11-12T16:28:24.942Z,102259.41
2022-11-12T16:31:11.258Z,102256.88
2022-11-12T16:33:57.264Z,102259.56
2022-11-12T16:36:48.009Z,102253.53
2022-11-12T16:39:33.767Z,102256.19
2022-11-12T16:42:19.881Z,102257.44
2022-11-12T16:45:06.698Z,102257.44
2022-11-12T16:47:55.858Z,102253.47
2022-11-12T16:50:41.656Z,102255.06
2022-11-12T16:53:28.280Z,102254.22
2022-11-12T16:56:36.635Z,102259.00
2022-11-12T16:59:22.776Z,102258.34
2022-11-12T17:02:18.328Z,102261.63
2022-11-12T17:05:05.662Z,102258.28
2022-11-12T17:07:58.303Z,102255.59
2022-11-12T17:10:46.033Z,102251.63
2022-11-12T17:13:32.297Z,102259.28
2022-11-12T17:16:18.244Z,102257.41
2022-11-12T17:19:08.129Z,102263.63
2022-11-12T17:21:53.865Z,102265.50
2022-11-12T17:24:41.440Z,102268.19
2022-11-12T17:27:32.979Z,102264.03
2022-11-12T17:30:22.887Z,102267.38
2022-11-12T17:33:14.326Z,102274.81
2022-11-12T17:36:11.276Z,102266.31
2022-11-12T17:39:06.082Z,102266.31
2022-11-12T17:41:56.967Z,102261.78
2022-11-12T17:44:44.509Z,102263.63
2022-11-12T17:47:30.735Z,102272.56
2022-11-12T17:50:21.671Z,102262.34
2022-11-12T17:53:10.982Z,102259.50
2022-11-12T17:56:01.003Z,102266.09
2022-11-12T17:58:47.712Z,102266.91
2022-11-12T18:01:35.129Z,102268.13
2022-11-12T18:04:30.800Z,102270.19
2022-11-12T18:07:16.831Z,102264.16
2022-11-12T18:10:05.915Z,102263.06
2022-11-12T18:12:53.340Z,102261.03
2022-11-12T18:15:39.004Z,102263.66
2022-11-12T18:18:26.205Z,102264.94
2022-11-12T18:21:14.461Z,102265.16
2022-11-12T18:24:01.361Z,102263.41
2022-11-12T18:26:47.561Z,102254.00
2022-11-12T18:29:34.492Z,102247.59
2022-11-12T18:32:21.170Z,102246.44
2022-11-12T18:35:08.440Z,102246.59
2022-11-12T18:37:56.081Z,102246.44
2022-11-12T18:40:42.890Z,102240.75
2022-11-12T18:43:30.269Z,102242.22
2022-11-12T18:46:17.244Z,102238.34
2022-11-12T18:49:04.076Z,102233.31
2022-11-12T18:51:50.476Z,102240.84
2022-11-12T18:54:37.036Z,102230.06
2022-11-12T18:57:23.383Z,102234.44
2022-11-12T19:00:11.317Z,102227.38
2022-11-12T19:02:57.896Z,102218.81
2022-11-12T19:05:45.288Z,102221.31
2022-11-12T19:08:33.591Z,102214.28
2022-11-12T19:11:22.979Z,102219.28
2022-11-12T19:14:09.450Z,102208.50
2022-11-12T19:16:56.456Z,102213.72
2022-11-12T19:19:42.530Z,102209.91
2022-11-12T19:22:30.184Z,102207.66
2022-11-12T19:25:16.781Z,102215.75
2022-11-12T19:28:03.286Z,102212.41
2022-11-12T19:30:49.845Z,102210.56
2022-11-12T19:33:36.685Z,102216.78
2022-11-12T19:36:25.270Z,102215.75
2022-11-12T19:39:11.135Z,102212.22
2022-11-12T19:42:06.732Z,102211.41
2022-11-12T19:44:55.057Z,102202.47
2022-11-12T19:47:44.971Z,102207.88
2022-11-12T19:50:33.867Z,102200.44
2022-11-12T19:53:19.959Z,102195.25
2022-11-12T19:56:07.682Z,102191.44
2022-11-12T19:58:55.499Z,102189.38
2022-11-12T20:01:41.742Z,102189.78
2022-11-12T20:04:27.783Z,102189.13
2022-11-12T20:07:14.219Z,102185.59
2022-11-12T20:10:03.256Z,102185.69
2022-11-12T20:12:48.810Z,102178.38
2022-11-12T20:15:34.815Z,102181.06
2022-11-12T20:18:23.081Z,102191.19
2022-11-12T20:21:11.136Z,102190.56
2022-11-12T20:24:01.991Z,102195.94
2022-11-12T20:26:48.204Z,102192.59
2022-11-12T20:29:37.795Z,102194.66
2022-11-12T20:32:39.127Z,102195.28
2022-11-12T20:35:25.234Z,102187.22
2022-11-12T20:38:11.531Z,102185.56
2022-11-12T20:41:00.601Z,102186.59
2022-11-12T20:43:46.997Z,102186.78
2022-11-12T20:46:33.372Z,102192.91
2022-11-12T20:49:19.287Z,102193.59
2022-11-12T20:52:05.279Z,102193.50
2022-11-12T20:54:51.377Z,102186.03
2022-11-12T20:57:37.365Z,102184.78
2022-11-12T21:00:24.423Z,102190.22
2022-11-12T21:03:11.814Z,102184.28
2022-11-12T21:06:03.209Z,102181.59
2022-11-12T21:08:49.836Z,102183.38
2022-11-12T21:11:36.510Z,102180.63
2022-11-12T21:14:22.622Z,102186.38
2022-11-12T21:17:08.918Z,102174.13
2022-11-12T21:19:55.261Z,102180.09
2022-11-12T21:23:34.438Z,102185.22
2022-11-12T21:26:25.258Z,102180.03
2022-11-12T21:29:29.299Z,102181.97
2022-11-12T21:32:17.249Z,102177.41
2022-11-12T21:35:07.998Z,102170.22
2022-11-12T21:38:02.078Z,102167.81
2022-11-12T21:40:49.130Z,102170.09
2022-11-12T21:43:45.378Z,102173.06
2022-11-12T21:46:34.028Z,102158.59
2022-11-12T21:49:28.364Z,102162.75
2022-11-12T21:52:35.616Z,102170.50
2022-11-12T22:16:38.631Z,102138.44
2022-11-12T22:22:12.109Z,102143.91
2022-11-12T22:23:33.305Z,102142.34
2022-11-12T22:26:28.959Z,102134.53
2022-11-12T22:29:15.440Z,102130.19
2022-11-12T22:32:01.605Z,102124.34
2022-11-12T22:34:49.569Z,102127.03
2022-11-12T22:37:36.449Z,102128.81
2022-11-12T22:40:22.688Z,102127.31
2022-11-12T22:43:09.589Z,102120.84
2022-11-12T22:45:58.670Z,102125.53
2022-11-12T22:48:44.974Z,102113.00
2022-11-12T22:51:33.570Z,102118.06
2022-11-12T22:54:19.462Z,102116.09
2022-11-12T22:57:05.902Z,102114.75
2022-11-12T22:59:51.799Z,102108.47
2022-11-12T23:02:37.659Z,102109.59
2022-11-12T23:05:23.614Z,102093.91
2022-11-12T23:08:11.386Z,102089.53
2022-11-12T23:10:58.518Z,102084.28
2022-11-12T23:13:46.797Z,102088.97
2022-11-12T23:16:33.521Z,102079.91
2022-11-12T23:19:20.010Z,102083.63
2022-11-12T23:22:09.243Z,102079.09
2022-11-12T23:24:56.193Z,102074.88
2022-11-12T23:27:42.227Z,102074.44
2022-11-12T23:30:28.778Z,102072.41
2022-11-12T23:33:15.263Z,102060.81
2022-11-12T23:36:09.873Z,102067.88
2022-11-12T23:39:01.155Z,102060.81
2022-11-12T23:41:48.322Z,102058.94
2022-11-12T23:44:34.608Z,102052.28
2022-11-12T23:47:21.304Z,102055.56
2022-11-12T23:50:08.424Z,102039.16
2022-11-12T23:52:54.332Z,102039.81
2022-11-12T23:55:43.188Z,102040.63
2022-11-12T23:58:30.668Z,102045.09
